Time;durP1;ratioP1;P1;durP2;ratioP2;P2;SDS_P1;SDS_P2;PMS_P1;PMS_P2;Temp;Humidity;BMP_temperature;BMP_pressure;BME280_temperature;BME280_humidity;BME280_pressure;Samples;Min_cycle;Max_cycle;Signal;HPM_P1;HPM_P2
2022/12/25 00:00:18;;;;;;;;;;;;;;;12.84;72.24;101035.84;1053231;28;745;-64
2022/12/25 00:01:08;;;;;;;;;;;;;;;12.83;72.75;101036.81;1055508;28;1166;-65
2022/12/25 00:01:59;;;;;;;;;;;;;;;12.84;72.13;101041.19;1055945;28;614;-64
2022/12/25 00:02:49;;;;;;;;;;;;;;;12.84;72.31;101038.53;1055988;28;984;-64
2022/12/25 00:03:40;;;;;;;;;;;;;;;12.85;72.48;101036.72;1055585;28;685;-64
2022/12/25 00:04:30;;;;;;;;;;;;;;;12.86;72.58;101041.94;1054286;28;733;-64
2022/12/25 00:05:20;;;;;;;;;;;;;;;12.85;72.55;101042.06;1056011;28;621;-64
2022/12/25 00:06:11;;;;;;;;;;;;;;;12.84;71.86;101043.88;1055858;28;1277;-65
2022/12/25 00:07:01;;;;;;;;;;;;;;;12.83;72.30;101036.81;1055910;28;613;-64
2022/12/25 00:07:52;;;;;;;;;;;;;;;12.84;72.42;101037.66;1051802;28;716;-64
2022/12/25 00:08:42;;;;;;;;;;;;;;;12.84;72.23;101035.00;1056282;28;541;-64
2022/12/25 00:09:32;;;;;;;;;;;;;;;12.85;72.54;101032.22;1055686;28;724;-64
2022/12/25 00:10:23;;;;;;;;;;;;;;;12.85;72.40;101036.72;1055739;28;1186;-64
2022/12/25 00:11:13;;;;;;;;;;;;;;;12.85;71.71;101031.34;1053734;28;1094;-64
2022/12/25 00:12:04;;;;;;;;;;;;;;;12.85;72.15;101037.56;1055191;28;748;-64
2022/12/25 00:12:54;;;;;;;;;;;;;;;12.83;71.94;101042.16;1055438;28;1122;-64
2022/12/25 00:13:45;;;;;;;;;;;;;;;12.85;72.30;101036.72;1056820;28;1040;-64
2022/12/25 00:14:35;;;;;;;;;;;;;;;12.83;72.15;101039.50;1052952;28;1224;-65
2022/12/25 00:15:25;;;;;;;;;;;;;;;12.86;72.07;101035.75;1051316;28;1162;-65
2022/12/25 00:16:16;;;;;;;;;;;;;;;12.85;71.81;101037.56;1052854;28;673;-64
2022/12/25 00:17:06;;;;;;;;;;;;;;;12.83;72.27;101039.50;1051983;28;1251;-65
2022/12/25 00:17:57;;;;;;;;;;;;;;;12.85;72.23;101044.72;1056168;28;759;-65
2022/12/25 00:18:47;;;;;;;;;;;;;;;12.83;72.64;101033.28;1051571;28;653;-64
2022/12/25 00:19:38;;;;;;;;;;;;;;;12.83;72.05;101038.63;1051965;28;621;-65
2022/12/25 00:20:28;;;;;;;;;;;;;;;12.83;72.65;101033.28;1056714;28;1154;-64
2022/12/25 00:21:19;;;;;;;;;;;;;;;12.80;72.69;101039.69;1055874;28;1193;-64
2022/12/25 00:22:09;;;;;;;;;;;;;;;12.81;72.03;101035.22;1055580;28;702;-64
2022/12/25 00:22:59;;;;;;;;;;;;;;;12.82;72.03;101035.09;1055714;28;1165;-65
2022/12/25 00:23:50;;;;;;;;;;;;;;;12.84;72.64;101035.00;1055564;28;768;-65
2022/12/25 00:24:40;;;;;;;;;;;;;;;12.84;72.67;101030.50;1056258;28;1138;-64
2022/12/25 00:25:31;;;;;;;;;;;;;;;12.85;72.25;101034.03;1057163;28;706;-64
2022/12/25 00:26:21;;;;;;;;;;;;;;;12.84;71.89;101025.16;1055465;28;1225;-64
2022/12/25 00:27:11;;;;;;;;;;;;;;;12.85;71.70;101026.00;1055322;28;880;-64
2022/12/25 00:28:02;;;;;;;;;;;;;;;12.85;71.67;101021.53;1055893;28;1206;-65
2022/12/25 00:28:52;;;;;;;;;;;;;;;12.85;72.00;101026.00;1052957;28;712;-64
2022/12/25 00:29:43;;;;;;;;;;;;;;;12.84;72.22;101030.50;1054510;28;1230;-64
2022/12/25 00:30:33;;;;;;;;;;;;;;;12.84;72.56;101029.66;1053512;28;723;-64
2022/12/25 00:31:24;;;;;;;;;;;;;;;12.84;72.60;101030.50;1052176;28;621;-64
2022/12/25 00:32:14;;;;;;;;;;;;;;;12.84;71.77;101027.81;1055730;28;1141;-64
2022/12/25 00:33:04;;;;;;;;;;;;;;;12.83;71.81;101023.44;1055255;28;1154;-64
2022/12/25 00:33:55;;;;;;;;;;;;;;;12.83;72.66;101025.25;1052459;28;629;-64
2022/12/25 00:34:45;;;;;;;;;;;;;;;12.83;72.62;101023.44;1054375;28;1139;-64
2022/12/25 00:35:36;;;;;;;;;;;;;;;12.82;72.51;101034.25;1056002;28;664;-64
2022/12/25 00:36:26;;;;;;;;;;;;;;;12.82;72.03;101027.06;1055912;28;1209;-64
2022/12/25 00:37:17;;;;;;;;;;;;;;;12.82;72.57;101024.41;1055897;28;613;-64
2022/12/25 00:38:07;;;;;;;;;;;;;;;12.81;72.43;101025.38;1051850;28;646;-64
2022/12/25 00:38:57;;;;;;;;;;;;;;;12.82;72.72;101027.06;1051700;28;641;-64
2022/12/25 00:39:48;;;;;;;;;;;;;;;12.83;72.57;101020.78;1054702;28;1142;-64
2022/12/25 00:40:39;;;;;;;;;;;;;;;12.83;72.46;101031.47;1055445;28;635;-64
2022/12/25 00:42:38;;;;;;;;;;;;;;;12.83;71.74;101027.94;1053047;28;1194;-64
2022/12/25 00:43:28;;;;;;;;;;;;;;;12.84;71.81;101033.19;1052896;28;663;-65
2022/12/25 00:44:19;;;;;;;;;;;;;;;12.82;72.59;101029.75;1054243;28;1269;-64
2022/12/25 00:45:09;;;;;;;;;;;;;;;12.85;72.18;101031.34;1053502;28;664;-65
2022/12/25 00:46:00;;;;;;;;;;;;;;;12.85;72.09;101032.22;1052913;28;629;-65
2022/12/25 00:46:50;;;;;;;;;;;;;;;12.83;71.81;101041.31;1056114;28;617;-65
2022/12/25 00:47:40;;;;;;;;;;;;;;;12.83;71.64;101038.63;1055921;28;708;-64
2022/12/25 00:48:31;;;;;;;;;;;;;;;12.84;72.45;101040.34;1057136;28;1162;-64
2022/12/25 00:49:22;;;;;;;;;;;;;;;12.84;71.83;101041.19;1056976;28;820;-64
2022/12/25 00:50:13;;;;;;;;;;;;;;;12.81;72.28;101045.91;1055091;28;1178;-64
2022/12/25 00:51:03;;;;;;;;;;;;;;;12.83;72.20;101038.63;1055525;28;701;-64
2022/12/25 00:51:53;;;;;;;;;;;;;;;12.84;72.68;101035.84;1055628;28;1166;-64
2022/12/25 00:52:44;;;;;;;;;;;;;;;12.84;72.39;101038.53;1055498;28;710;-64
2022/12/25 00:53:34;;;;;;;;;;;;;;;12.82;72.54;101032.44;1056388;28;1166;-64
2022/12/25 00:54:25;;;;;;;;;;;;;;;12.83;71.99;101036.81;1055392;28;817;-64
2022/12/25 00:55:15;;;;;;;;;;;;;;;12.83;72.57;101036.81;1055407;28;1897;-64
2022/12/25 00:56:05;;;;;;;;;;;;;;;12.85;72.12;101044.72;1053399;28;633;-65
2022/12/25 00:56:56;;;;;;;;;;;;;;;12.82;72.39;101043.13;1060025;28;704;-64
2022/12/25 00:57:46;;;;;;;;;;;;;;;12.81;71.74;101044.09;1059378;28;1091;-64
2022/12/25 00:58:37;;;;;;;;;;;;;;;12.81;71.98;101041.41;1056310;28;731;-64
2022/12/25 00:59:27;;;;;;;;;;;;;;;12.81;72.36;101045.91;1056005;28;1060;-64
2022/12/25 01:00:18;;;;;;;;;;;;;;;12.82;71.72;101042.28;1055907;28;731;-64
2022/12/25 01:01:08;;;;;;;;;;;;;;;12.80;71.73;101050.41;1056349;28;1138;-64
2022/12/25 01:02:22;;;;;;;;;;;;;;;12.81;72.70;101044.09;1055707;28;1003;-64
2022/12/25 01:03:09;;;;;;;;;;;;;;;12.81;71.68;101051.25;1056021;28;688;-64
2022/12/25 01:03:59;;;;;;;;;;;;;;;12.81;71.87;101056.59;1055019;28;981;-64
2022/12/25 01:04:50;;;;;;;;;;;;;;;12.82;71.92;101051.16;1055426;28;680;-65
2022/12/25 01:05:40;;;;;;;;;;;;;;;12.82;71.67;101043.13;1051555;28;677;-64
2022/12/25 01:06:31;;;;;;;;;;;;;;;12.83;72.45;101047.50;1052541;28;1182;-64
2022/12/25 01:07:21;;;;;;;;;;;;;;;12.83;71.80;101042.16;1052946;28;621;-65
2022/12/25 01:08:11;;;;;;;;;;;;;;;12.85;72.31;101052.75;1054954;28;1146;-64
2022/12/25 01:10:23;;;;;;;;;;;;;;;12.84;72.50;101051.03;1054510;28;669;-64
2022/12/25 01:11:14;;;;;;;;;;;;;;;12.84;72.03;101045.69;1055760;28;1158;-64
2022/12/25 01:12:04;;;;;;;;;;;;;;;12.84;71.95;101043.03;1053472;28;1055;-64
2022/12/25 01:12:54;;;;;;;;;;;;;;;12.82;72.23;101045.81;1055241;28;632;-64
2022/12/25 01:13:45;;;;;;;;;;;;;;;12.82;71.82;101048.47;1054897;28;1187;-65
2022/12/25 01:14:35;;;;;;;;;;;;;;;12.82;71.98;101048.47;1056014;28;630;-65
2022/12/25 01:15:26;;;;;;;;;;;;;;;12.81;71.88;101049.44;1054866;28;1154;-64
2022/12/25 01:16:16;;;;;;;;;;;;;;;12.82;71.81;101053.81;1055814;28;714;-64
2022/12/25 01:17:07;;;;;;;;;;;;;;;12.85;72.49;101052.75;1054180;28;1209;-65
2022/12/25 01:17:57;;;;;;;;;;;;;;;12.85;72.53;101052.75;1056374;28;701;-64
2022/12/25 01:18:47;;;;;;;;;;;;;;;12.83;72.41;101052.88;1062467;27;664;-64
2022/12/25 01:19:38;;;;;;;;;;;;;;;12.82;72.58;101048.47;1058445;27;715;-64
2022/12/25 01:20:28;;;;;;;;;;;;;;;12.83;72.64;101047.50;1057035;28;1130;-64
2022/12/25 01:21:20;;;;;;;;;;;;;;;12.82;71.81;101043.13;1056066;28;678;-64
2022/12/25 01:22:10;;;;;;;;;;;;;;;12.82;72.13;101042.28;1052151;28;642;-64
2022/12/25 01:23:00;;;;;;;;;;;;;;;12.82;71.79;101043.13;1055075;28;765;-64
2022/12/25 01:23:51;;;;;;;;;;;;;;;12.81;72.51;101052.09;1052702;28;722;-64
2022/12/25 01:24:42;;;;;;;;;;;;;;;12.82;72.47;101048.47;1052901;28;729;-64
2022/12/25 01:25:32;;;;;;;;;;;;;;;12.81;72.37;101052.09;1054236;28;629;-64
2022/12/25 01:26:23;;;;;;;;;;;;;;;12.81;72.04;101057.47;1055845;28;925;-64
2022/12/25 01:27:13;;;;;;;;;;;;;;;12.81;71.66;101059.28;1057852;28;637;-64
2022/12/25 01:28:03;;;;;;;;;;;;;;;12.82;71.74;101061.00;1052360;28;610;-65
2022/12/25 01:28:54;;;;;;;;;;;;;;;12.81;72.62;101057.47;1052459;28;747;-64
2022/12/25 01:29:44;;;;;;;;;;;;;;;12.84;72.41;101057.25;1056895;28;1186;-64
2022/12/25 01:30:35;;;;;;;;;;;;;;;12.83;72.34;101066.22;1056632;28;609;-64
2022/12/25 01:31:25;;;;;;;;;;;;;;;12.84;71.58;101059.91;1053131;28;578;-65
2022/12/25 01:32:16;;;;;;;;;;;;;;;12.83;72.50;101060.88;1053472;28;1162;-64
2022/12/25 01:33:06;;;;;;;;;;;;;;;12.84;71.57;101057.25;1053568;28;641;-64
2022/12/25 01:33:57;;;;;;;;;;;;;;;12.84;72.42;101051.91;1052300;28;621;-64
2022/12/25 01:34:47;;;;;;;;;;;;;;;12.83;72.49;101050.19;1056178;28;657;-64
2022/12/25 01:35:37;;;;;;;;;;;;;;;12.82;71.65;101056.50;1055826;28;829;-64
2022/12/25 01:36:28;;;;;;;;;;;;;;;12.80;72.03;101053.06;1056474;28;1162;-64
2022/12/25 01:37:18;;;;;;;;;;;;;;;12.81;71.84;101057.47;1056244;28;702;-64
2022/12/25 01:38:09;;;;;;;;;;;;;;;12.80;71.80;101061.09;1056348;28;1134;-64
2022/12/25 01:38:59;;;;;;;;;;;;;;;12.80;71.59;101054.88;1057336;28;944;-64
2022/12/25 01:39:49;;;;;;;;;;;;;;;12.80;72.45;101055.75;1055920;28;630;-64
2022/12/25 01:40:40;;;;;;;;;;;;;;;12.80;72.50;101045.06;1056026;28;956;-64
2022/12/25 01:41:30;;;;;;;;;;;;;;;12.79;72.51;101046.00;1057097;28;728;-64
2022/12/25 01:42:22;;;;;;;;;;;;;;;12.81;71.66;101038.75;1055995;28;674;-64
2022/12/25 01:43:12;;;;;;;;;;;;;;;12.83;72.31;101044.84;1052196;28;621;-64
2022/12/25 01:44:03;;;;;;;;;;;;;;;12.82;71.81;101040.44;1057796;28;707;-64
2022/12/25 01:44:53;;;;;;;;;;;;;;;12.80;72.36;101041.53;1052226;28;625;-64
2022/12/25 01:45:46;;;;;;;;;;;;;;;12.82;72.39;101048.47;1052451;28;625;-64
2022/12/25 01:46:36;;;;;;;;;;;;;;;12.81;72.29;101033.38;1056245;28;1225;-64
2022/12/25 01:47:27;;;;;;;;;;;;;;;12.82;71.63;101035.09;1054098;28;732;-64
2022/12/25 01:48:17;;;;;;;;;;;;;;;12.81;72.14;101037.88;1053358;28;1146;-64
2022/12/25 01:49:08;;;;;;;;;;;;;;;12.81;72.32;101036.06;1053523;28;729;-65
2022/12/25 01:49:58;;;;;;;;;;;;;;;12.82;72.25;101042.28;1052509;28;657;-65
2022/12/25 01:50:49;;;;;;;;;;;;;;;12.81;72.58;101044.09;1052843;28;637;-64
2022/12/25 01:51:39;;;;;;;;;;;;;;;12.81;72.42;101041.41;1053400;28;682;-64
2022/12/25 01:52:30;;;;;;;;;;;;;;;12.81;71.52;101044.09;1052553;28;1316;-64
2022/12/25 01:53:21;;;;;;;;;;;;;;;12.80;72.27;101033.50;1053086;28;697;-64
2022/12/25 01:54:11;;;;;;;;;;;;;;;12.80;71.91;101029.00;1053018;28;649;-64
2022/12/25 01:55:05;;;;;;;;;;;;;;;12.80;71.55;101041.53;1056618;28;1897;-64
2022/12/25 01:55:55;;;;;;;;;;;;;;;12.80;72.53;101039.69;1056508;28;688;-64
2022/12/25 01:56:45;;;;;;;;;;;;;;;12.80;72.52;101044.19;1060433;27;713;-63
2022/12/25 01:57:36;;;;;;;;;;;;;;;12.80;72.41;101045.06;1057482;28;633;-64
2022/12/25 01:58:26;;;;;;;;;;;;;;;12.80;71.61;101041.53;1056653;28;1034;-64
2022/12/25 01:59:17;;;;;;;;;;;;;;;12.79;71.67;101051.34;1055907;28;662;-64
2022/12/25 02:00:07;;;;;;;;;;;;;;;12.79;72.34;101054.03;1053412;28;1019;-64
2022/12/25 02:00:57;;;;;;;;;;;;;;;12.78;72.59;101052.31;1055776;28;633;-64
2022/12/25 02:01:48;;;;;;;;;;;;;;;12.79;72.51;101047.84;1054111;28;696;-64
2022/12/25 02:02:38;;;;;;;;;;;;;;;12.77;71.74;101045.25;1052817;28;665;-64
2022/12/25 02:03:29;;;;;;;;;;;;;;;12.78;72.21;101044.31;1056465;28;1087;-64
2022/12/25 02:04:19;;;;;;;;;;;;;;;12.79;72.27;101051.34;1056188;28;681;-64
2022/12/25 02:05:10;;;;;;;;;;;;;;;12.78;71.80;101051.47;1055456;28;1106;-64
2022/12/25 02:06:00;;;;;;;;;;;;;;;12.79;72.54;101053.19;1056143;28;654;-64
2022/12/25 02:06:51;;;;;;;;;;;;;;;12.78;72.60;101055.00;1052223;28;724;-64
2022/12/25 02:07:41;;;;;;;;;;;;;;;12.81;72.59;101053.94;1053091;28;792;-64
2022/12/25 02:08:32;;;;;;;;;;;;;;;12.80;72.04;101057.56;1052214;28;630;-64
2022/12/25 02:09:23;;;;;;;;;;;;;;;12.78;71.56;101060.34;1052934;28;682;-64
2022/12/25 02:10:13;;;;;;;;;;;;;;;12.80;71.71;101061.09;1056320;28;1270;-64
2022/12/25 02:11:03;;;;;;;;;;;;;;;12.79;72.30;101061.19;1055661;28;701;-65
2022/12/25 02:11:57;;;;;;;;;;;;;;;12.79;72.41;101064.72;1056625;28;743;-64
2022/12/25 02:12:47;;;;;;;;;;;;;;;12.77;72.17;101063.97;1056148;28;697;-64
2022/12/25 02:13:38;;;;;;;;;;;;;;;12.76;71.80;101070.28;1052162;28;1319;-64
2022/12/25 02:14:28;;;;;;;;;;;;;;;12.77;71.60;101066.66;1052872;28;741;-64
2022/12/25 02:15:18;;;;;;;;;;;;;;;12.76;72.03;101064.94;1056461;28;1959;-65
2022/12/25 02:16:09;;;;;;;;;;;;;;;12.77;72.09;101058.63;1057663;28;1113;-64
2022/12/25 02:16:59;;;;;;;;;;;;;;;12.76;71.71;101050.72;1056820;28;637;-64
2022/12/25 02:17:50;;;;;;;;;;;;;;;12.76;72.69;101051.56;1055225;28;1102;-64
2022/12/25 02:18:40;;;;;;;;;;;;;;;12.78;71.67;101046.97;1056067;28;689;-65
2022/12/25 02:19:31;;;;;;;;;;;;;;;12.77;72.54;101050.59;1056782;28;1150;-64
2022/12/25 02:20:21;;;;;;;;;;;;;;;12.78;72.49;101051.47;1056921;28;677;-64
2022/12/25 02:21:12;;;;;;;;;;;;;;;12.77;72.60;101047.09;1053913;28;1024;-65
2022/12/25 02:22:02;;;;;;;;;;;;;;;12.78;71.82;101051.47;1056128;28;701;-64
2022/12/25 02:22:53;;;;;;;;;;;;;;;12.78;72.48;101046.13;1056400;28;716;-64
2022/12/25 02:23:43;;;;;;;;;;;;;;;12.77;72.41;101047.09;1052140;28;661;-64
2022/12/25 02:24:33;;;;;;;;;;;;;;;12.77;72.67;101044.41;1052203;28;625;-64
2022/12/25 02:25:24;;;;;;;;;;;;;;;12.76;72.13;101048.91;1052802;28;630;-64
2022/12/25 02:26:15;;;;;;;;;;;;;;;12.77;71.78;101049.75;1052913;28;1154;-64
2022/12/25 02:27:05;;;;;;;;;;;;;;;12.75;72.28;101043.66;1058167;28;658;-64
2022/12/25 02:27:56;;;;;;;;;;;;;;;12.76;72.40;101048.03;1053402;28;684;-64
2022/12/25 02:28:46;;;;;;;;;;;;;;;12.77;72.21;101041.72;1056999;28;1151;-64
2022/12/25 02:29:38;;;;;;;;;;;;;;;12.75;72.69;101047.19;1056384;28;613;-64
2022/12/25 02:30:28;;;;;;;;;;;;;;;12.76;72.13;101038.19;1054502;28;1003;-64
2022/12/25 02:31:18;;;;;;;;;;;;;;;12.76;72.11;101038.19;1057503;28;656;-65
2022/12/25 02:32:09;;;;;;;;;;;;;;;12.77;72.45;101037.25;1055651;28;1011;-64
2022/12/25 02:34:11;;;;;;;;;;;;;;;12.78;72.06;101040.78;1055360;28;1154;-65
2022/12/25 02:35:02;;;;;;;;;;;;;;;12.79;72.37;101037.13;1055670;28;1882;-65
2022/12/25 02:35:52;;;;;;;;;;;;;;;12.77;72.14;101039.91;1056323;28;1094;-64
2022/12/25 02:36:43;;;;;;;;;;;;;;;12.77;72.55;101039.91;1055289;28;875;-64
2022/12/25 02:37:33;;;;;;;;;;;;;;;12.77;72.22;101039.06;1052222;28;637;-64
2022/12/25 02:38:23;;;;;;;;;;;;;;;12.78;71.69;101040.78;1053210;28;786;-64
2022/12/25 02:40:23;;;;;;;;;;;;;;;12.76;71.95;101038.19;1055189;28;1079;-64
2022/12/25 02:41:13;;;;;;;;;;;;;;;12.76;72.11;101040.03;1057482;28;727;-64
2022/12/25 02:42:04;;;;;;;;;;;;;;;12.75;72.44;101036.50;1056756;28;1138;-64
2022/12/25 03:07:07;;;;;;;;;;;;;;;12.73;72.05;101000.97;1053726;28;690;-65
2022/12/25 03:07:58;;;;;;;;;;;;;;;12.72;72.09;100999.25;1055959;28;1222;-64
2022/12/25 03:08:48;;;;;;;;;;;;;;;12.73;72.41;101000.97;1055823;28;685;-65
2022/12/25 03:11:57;;;;;;;;;;;;;;;12.73;71.83;100992.09;1056065;28;740;-64
2022/12/25 03:12:47;;;;;;;;;;;;;;;12.72;72.53;100993.91;1052021;28;625;-65
2022/12/25 03:13:37;;;;;;;;;;;;;;;12.71;72.60;100986.88;1052383;28;1100;-65
2022/12/25 03:16:50;;;;;;;;;;;;;;;12.71;71.83;100980.69;1053919;28;650;-65
2022/12/25 03:17:40;;;;;;;;;;;;;;;12.72;71.83;100985.06;1056410;28;663;-65
2022/12/25 03:18:31;;;;;;;;;;;;;;;12.70;71.55;100987.84;1059791;27;1340;-65
2022/12/25 03:27:41;;;;;;;;;;;;;;;12.72;72.16;100985.91;1048483;28;904;-65
2022/12/25 03:28:31;;;;;;;;;;;;;;;12.73;72.39;100987.59;1048433;28;716;-65
2022/12/25 03:31:40;;;;;;;;;;;;;;;12.70;71.88;100990.53;1043730;28;1087;-65
2022/12/25 03:32:30;;;;;;;;;;;;;;;12.72;72.00;101004.63;1047447;28;724;-65
2022/12/25 03:33:20;;;;;;;;;;;;;;;12.71;72.00;100997.59;1043106;28;662;-65
2022/12/25 03:35:24;;;;;;;;;;;;;;;12.73;71.48;100992.94;1044138;28;1955;-65
2022/12/25 03:36:14;;;;;;;;;;;;;;;12.73;72.07;100990.28;1046058;28;1106;-65
2022/12/25 03:38:45;;;;;;;;;;;;;;;12.71;71.67;100988.72;1043616;28;752;-65
2022/12/25 04:36:47;;;;;;;;;;;;;;;12.70;72.18;100973.63;1053458;28;670;-65
2022/12/25 04:37:37;;;;;;;;;;;;;;;12.70;71.56;100979.84;1055917;28;1225;-65
2022/12/25 04:38:28;;;;;;;;;;;;;;;12.68;71.54;100973.75;1056400;28;709;-64
2022/12/25 04:39:18;;;;;;;;;;;;;;;12.70;71.65;100977.16;1055991;28;613;-65
2022/12/25 04:40:08;;;;;;;;;;;;;;;12.70;72.24;100990.53;1056082;28;689;-64
2022/12/25 04:40:59;;;;;;;;;;;;;;;12.70;71.99;100989.66;1056015;28;676;-64
2022/12/25 04:41:49;;;;;;;;;;;;;;;12.71;72.25;100989.56;1055487;28;657;-65
2022/12/25 04:42:40;;;;;;;;;;;;;;;12.70;72.19;100982.50;1055574;28;1185;-65
2022/12/25 04:43:30;;;;;;;;;;;;;;;12.70;71.92;100973.63;1055537;28;750;-65
2022/12/25 04:44:21;;;;;;;;;;;;;;;12.70;71.65;100969.13;1055632;28;1201;-65
2022/12/25 04:45:11;;;;;;;;;;;;;;;12.70;71.91;100963.78;1052973;28;815;-65
2022/12/25 04:46:01;;;;;;;;;;;;;;;12.69;72.10;100964.75;1052425;28;642;-64
2022/12/25 04:46:52;;;;;;;;;;;;;;;12.70;71.55;100968.28;1051145;28;1162;-65
2022/12/25 04:47:42;;;;;;;;;;;;;;;12.69;71.92;100967.44;1053056;28;696;-65
2022/12/25 04:48:33;;;;;;;;;;;;;;;12.70;72.16;100977.16;1055875;28;1075;-65
2022/12/25 04:49:23;;;;;;;;;;;;;;;12.70;71.42;100984.31;1056405;28;708;-65
2022/12/25 04:50:14;;;;;;;;;;;;;;;12.70;72.16;100982.50;1053712;28;700;-65
2022/12/25 04:51:04;;;;;;;;;;;;;;;12.71;71.77;100980.69;1053229;28;680;-65
2022/12/25 04:51:55;;;;;;;;;;;;;;;12.70;71.47;100979.84;1057073;28;665;-65
2022/12/25 04:52:45;;;;;;;;;;;;;;;12.69;71.44;100978.13;1052507;28;657;-64
2022/12/25 04:53:35;;;;;;;;;;;;;;;12.71;71.91;100976.19;1052771;28;708;-64
2022/12/25 04:54:26;;;;;;;;;;;;;;;12.69;72.00;100972.78;1052477;28;721;-65
2022/12/25 04:55:16;;;;;;;;;;;;;;;12.71;72.36;100964.66;1054615;28;1893;-65
2022/12/25 04:56:07;;;;;;;;;;;;;;;12.68;71.58;100968.38;1056050;28;757;-65
2022/12/25 04:56:57;;;;;;;;;;;;;;;12.70;71.72;100968.28;1052483;28;625;-65
2022/12/25 04:57:47;;;;;;;;;;;;;;;12.70;71.95;100970.94;1053322;28;789;-65
2022/12/25 04:58:38;;;;;;;;;;;;;;;12.70;71.39;100976.31;1054653;28;1214;-65
2022/12/25 04:59:28;;;;;;;;;;;;;;;12.68;72.18;100981.75;1056496;27;1009;-65
2022/12/25 05:00:19;;;;;;;;;;;;;;;12.69;72.05;100980.78;1050601;28;664;-65
2022/12/25 05:01:09;;;;;;;;;;;;;;;12.69;72.39;100986.13;1051885;28;1055;-65
2022/12/25 05:02:00;;;;;;;;;;;;;;;12.67;71.81;100982.72;1056525;28;637;-65
2022/12/25 05:02:50;;;;;;;;;;;;;;;12.68;72.40;100972.88;1054215;28;1075;-65
2022/12/25 05:03:40;;;;;;;;;;;;;;;12.69;72.15;100969.25;1056466;28;653;-65
2022/12/25 05:04:31;;;;;;;;;;;;;;;12.70;72.01;100974.50;1054316;28;1098;-65
2022/12/25 05:05:21;;;;;;;;;;;;;;;12.72;72.05;100963.69;1053724;28;696;-65
2022/12/25 05:06:12;;;;;;;;;;;;;;;12.71;71.37;100964.66;1056599;28;692;-65
2022/12/25 05:07:02;;;;;;;;;;;;;;;12.69;72.13;100967.44;1056797;28;656;-65
2022/12/25 05:07:53;;;;;;;;;;;;;;;12.69;71.63;100964.75;1055833;28;1098;-65
2022/12/25 05:08:43;;;;;;;;;;;;;;;12.71;72.07;100960.16;1056171;28;741;-65
2022/12/25 05:09:34;;;;;;;;;;;;;;;12.70;72.35;100969.13;1056620;28;1118;-65
2022/12/25 05:10:24;;;;;;;;;;;;;;;12.71;72.00;100957.47;1057238;28;669;-65
2022/12/25 05:11:14;;;;;;;;;;;;;;;12.70;72.18;100954.91;1056907;28;630;-65
2022/12/25 05:12:05;;;;;;;;;;;;;;;12.69;71.84;100958.56;1054861;28;646;-65
2022/12/25 05:12:55;;;;;;;;;;;;;;;12.70;72.13;100957.59;1056617;28;1265;-65
2022/12/25 05:13:46;;;;;;;;;;;;;;;12.69;72.33;100956.72;1057587;28;1016;-65
2022/12/25 05:14:36;;;;;;;;;;;;;;;12.69;71.95;100966.56;1056544;28;1193;-64
2022/12/25 05:15:27;;;;;;;;;;;;;;;12.68;72.21;100960.38;1056421;28;1917;-65
2022/12/25 05:16:18;;;;;;;;;;;;;;;12.69;72.01;100964.75;1055899;28;634;-65
2022/12/25 05:17:08;;;;;;;;;;;;;;;12.69;72.05;100962.06;1053001;28;674;-65
2022/12/25 05:17:58;;;;;;;;;;;;;;;12.70;72.18;100962.94;1055886;28;1198;-65
2022/12/25 05:18:49;;;;;;;;;;;;;;;12.71;72.14;100965.50;1053668;28;673;-65
2022/12/25 05:19:40;;;;;;;;;;;;;;;12.69;71.66;100961.22;1051825;28;665;-64
2022/12/25 05:20:30;;;;;;;;;;;;;;;12.70;72.26;100962.94;1053679;28;617;-64
2022/12/25 05:21:21;;;;;;;;;;;;;;;12.70;71.20;100953.09;1053117;28;617;-65
2022/12/25 05:22:11;;;;;;;;;;;;;;;12.70;71.59;100952.25;1053046;28;610;-65
2022/12/25 05:23:01;;;;;;;;;;;;;;;12.69;71.40;100953.19;1055415;28;1221;-65
2022/12/25 05:23:52;;;;;;;;;;;;;;;12.69;71.94;100950.53;1053673;28;641;-65
2022/12/25 05:24:42;;;;;;;;;;;;;;;12.68;71.56;100955.03;1056344;28;678;-65
2022/12/25 05:25:33;;;;;;;;;;;;;;;12.68;72.45;100948.81;1056673;28;626;-65
2022/12/25 05:26:23;;;;;;;;;;;;;;;12.68;71.91;100948.81;1054679;28;630;-65
2022/12/25 05:27:14;;;;;;;;;;;;;;;12.67;71.54;100947.97;1056802;28;674;-65
2022/12/25 05:28:04;;;;;;;;;;;;;;;12.67;71.84;100947.09;1052338;28;700;-65
2022/12/25 05:28:55;;;;;;;;;;;;;;;12.67;72.36;100944.44;1052630;28;681;-65
2022/12/25 05:29:45;;;;;;;;;;;;;;;12.67;72.38;100941.75;1055831;28;1795;-65
2022/12/25 05:30:35;;;;;;;;;;;;;;;12.67;71.90;100945.28;1056708;28;708;-65
2022/12/25 05:31:26;;;;;;;;;;;;;;;12.66;72.45;100937.38;1053859;28;882;-65
2022/12/25 05:32:16;;;;;;;;;;;;;;;12.67;71.56;100931.91;1056112;28;670;-65
2022/12/25 05:33:07;;;;;;;;;;;;;;;12.68;71.48;100930.97;1056844;28;655;-65
2022/12/25 05:33:57;;;;;;;;;;;;;;;12.68;72.21;100935.44;1056454;28;1177;-65
2022/12/25 05:34:47;;;;;;;;;;;;;;;12.69;71.86;100930.00;1049707;28;721;-65
2022/12/25 05:35:38;;;;;;;;;;;;;;;12.70;71.77;100931.69;1050011;28;1147;-65
2022/12/25 05:36:28;;;;;;;;;;;;;;;12.69;72.17;100939.84;1053979;28;630;-65
2022/12/25 05:37:19;;;;;;;;;;;;;;;12.69;72.16;100940.69;1054480;28;1183;-65
2022/12/25 05:38:09;;;;;;;;;;;;;;;12.70;72.25;100945.06;1053597;28;617;-64
2022/12/25 05:38:59;;;;;;;;;;;;;;;12.71;71.26;100938.75;1053444;28;1155;-64
2022/12/25 05:39:50;;;;;;;;;;;;;;;12.70;71.92;100942.41;1054139;28;664;-65
2022/12/25 05:40:40;;;;;;;;;;;;;;;12.71;72.06;100944.09;1055881;28;1225;-65
2022/12/25 05:41:31;;;;;;;;;;;;;;;12.71;71.30;100943.25;1054194;28;613;-65
2022/12/25 05:42:21;;;;;;;;;;;;;;;12.71;71.79;100938.75;1056678;28;626;-65
2022/12/25 05:43:12;;;;;;;;;;;;;;;12.70;71.39;100934.38;1056619;28;1205;-65
2022/12/25 05:44:02;;;;;;;;;;;;;;;12.70;71.40;100936.19;1055997;28;709;-65
2022/12/25 05:44:52;;;;;;;;;;;;;;;12.68;72.04;100938.97;1056805;28;704;-65
2022/12/25 05:45:43;;;;;;;;;;;;;;;12.67;71.88;100937.28;1054892;28;654;-65
2022/12/25 05:46:33;;;;;;;;;;;;;;;12.67;71.47;100934.59;1061803;27;700;-65
2022/12/25 05:47:24;;;;;;;;;;;;;;;12.67;71.46;100934.59;1060134;27;687;-65
2022/12/25 05:48:14;;;;;;;;;;;;;;;12.67;71.74;100931.91;1057366;28;688;-65
2022/12/25 05:49:05;;;;;;;;;;;;;;;12.67;71.68;100926.56;1056518;28;1166;-65
2022/12/25 05:49:55;;;;;;;;;;;;;;;12.68;71.86;100930.09;1056487;28;625;-65
2022/12/25 05:50:45;;;;;;;;;;;;;;;12.68;72.17;100928.28;1052448;28;730;-65
2022/12/25 05:51:36;;;;;;;;;;;;;;;12.67;72.31;100926.56;1052865;28;657;-65
2022/12/25 05:52:26;;;;;;;;;;;;;;;12.66;71.33;100924.00;1053035;28;704;-65
2022/12/25 05:53:17;;;;;;;;;;;;;;;12.67;71.45;100933.75;1055707;28;1186;-65
2022/12/25 05:54:07;;;;;;;;;;;;;;;12.67;72.13;100928.38;1053427;28;669;-65
2022/12/25 05:54:58;;;;;;;;;;;;;;;12.66;72.17;100922.19;1052681;28;1298;-65
2022/12/25 05:55:48;;;;;;;;;;;;;;;12.67;71.85;100931.06;1055489;28;1142;-65
2022/12/25 05:56:38;;;;;;;;;;;;;;;12.66;72.35;100930.22;1056238;28;601;-65
2022/12/25 05:57:29;;;;;;;;;;;;;;;12.64;72.28;100932.13;1056239;28;1035;-64
2022/12/25 05:58:19;;;;;;;;;;;;;;;12.67;71.37;100936.41;1056049;28;690;-64
2022/12/25 05:59:10;;;;;;;;;;;;;;;12.66;71.50;100930.22;1052046;28;709;-65
2022/12/25 06:00:00;;;;;;;;;;;;;;;12.65;71.50;100939.19;1056619;28;658;-65
2022/12/25 06:00:50;;;;;;;;;;;;;;;12.66;71.97;100934.69;1052471;28;646;-65
2022/12/25 06:01:41;;;;;;;;;;;;;;;12.67;71.83;100936.41;1056197;28;1131;-65
2022/12/25 06:02:31;;;;;;;;;;;;;;;12.66;72.19;100926.69;1058333;28;700;-65
2022/12/25 06:03:22;;;;;;;;;;;;;;;12.66;71.31;100940.91;1055629;28;999;-65
2022/12/25 06:04:12;;;;;;;;;;;;;;;12.64;71.39;100929.47;1055927;28;677;-65
2022/12/25 06:05:03;;;;;;;;;;;;;;;12.64;71.62;100937.47;1056046;28;944;-65
2022/12/25 06:05:53;;;;;;;;;;;;;;;12.64;72.40;100931.28;1055848;28;605;-65
2022/12/25 06:06:43;;;;;;;;;;;;;;;12.65;71.94;100928.50;1055975;28;995;-65
2022/12/25 06:07:34;;;;;;;;;;;;;;;12.65;71.38;100933.84;1055790;28;633;-65
2022/12/25 06:08:24;;;;;;;;;;;;;;;12.64;71.99;100926.78;1055823;28;1062;-65
2022/12/25 06:09:15;;;;;;;;;;;;;;;12.66;72.17;100924.00;1053791;28;623;-65